sensor_id;sensor_type;location;lat;lon;timestamp;temperature;humidity
20349;DHT22;10332;50.208;18.988;2023-09-19T00:00:56;21.30;1.00
20349;DHT22;10332;50.208;18.988;2023-09-19T00:03:37;21.30;1.00
20349;DHT22;10332;50.208;18.988;2023-09-19T00:06:05;21.30;1.00
20349;DHT22;10332;50.208;18.988;2023-09-19T00:08:35;21.30;1.00
20349;DHT22;10332;50.208;18.988;2023-09-19T00:11:02;21.30;1.00
20349;DHT22;10332;50.208;18.988;2023-09-19T00:13:34;21.30;1.00
20349;DHT22;10332;50.208;18.988;2023-09-19T00:16:10;21.30;1.00
20349;DHT22;10332;50.208;18.988;2023-09-19T00:18:38;21.30;1.00
20349;DHT22;10332;50.208;18.988;2023-09-19T00:21:06;21.30;1.00
20349;DHT22;10332;50.208;18.988;2023-09-19T00:23:34;21.20;1.00
20349;DHT22;10332;50.208;18.988;2023-09-19T00:26:01;21.20;1.00
20349;DHT22;10332;50.208;18.988;2023-09-19T00:28:29;21.20;1.00
20349;DHT22;10332;50.208;18.988;2023-09-19T00:30:57;21.20;1.00
20349;DHT22;10332;50.208;18.988;2023-09-19T00:33:27;21.20;1.00
20349;DHT22;10332;50.208;18.988;2023-09-19T00:35:57;21.20;1.00
20349;DHT22;10332;50.208;18.988;2023-09-19T00:38:25;21.20;1.00
20349;DHT22;10332;50.208;18.988;2023-09-19T00:40:54;21.30;1.00
20349;DHT22;10332;50.208;18.988;2023-09-19T00:43:27;21.30;1.00
20349;DHT22;10332;50.208;18.988;2023-09-19T00:45:56;21.30;1.00
20349;DHT22;10332;50.208;18.988;2023-09-19T00:48:25;21.30;1.00
20349;DHT22;10332;50.208;18.988;2023-09-19T00:50:58;21.30;1.00
20349;DHT22;10332;50.208;18.988;2023-09-19T00:53:31;21.30;1.00
20349;DHT22;10332;50.208;18.988;2023-09-19T00:55:58;21.30;1.00
20349;DHT22;10332;50.208;18.988;2023-09-19T00:58:25;21.30;1.00
20349;DHT22;10332;50.208;18.988;2023-09-19T01:00:53;21.30;1.00
20349;DHT22;10332;50.208;18.988;2023-09-19T01:03:20;21.30;1.00
20349;DHT22;10332;50.208;18.988;2023-09-19T01:05:50;21.30;1.00
20349;DHT22;10332;50.208;18.988;2023-09-19T01:08:17;21.30;1.00
20349;DHT22;10332;50.208;18.988;2023-09-19T01:14:28;21.30;77.10
20349;DHT22;10332;50.208;18.988;2023-09-19T01:17:09;21.30;27.40
20349;DHT22;10332;50.208;18.988;2023-09-19T01:30:43;21.30;54.50
20349;DHT22;10332;50.208;18.988;2023-09-19T01:33:11;21.20;92.70
20349;DHT22;10332;50.208;18.988;2023-09-19T01:35:38;21.20;99.90
20349;DHT22;10332;50.208;18.988;2023-09-19T01:38:07;21.20;99.90
20349;DHT22;10332;50.208;18.988;2023-09-19T01:40:42;21.20;99.90
20349;DHT22;10332;50.208;18.988;2023-09-19T01:43:17;21.30;99.90
20349;DHT22;10332;50.208;18.988;2023-09-19T01:45:53;21.30;99.90
20349;DHT22;10332;50.208;18.988;2023-09-19T01:51:19;21.20;99.90
20349;DHT22;10332;50.208;18.988;2023-09-19T01:53:55;21.30;99.90
20349;DHT22;10332;50.208;18.988;2023-09-19T01:56:29;21.20;99.90
20349;DHT22;10332;50.208;18.988;2023-09-19T01:59:04;21.20;99.90
20349;DHT22;10332;50.208;18.988;2023-09-19T02:01:34;21.20;99.90
20349;DHT22;10332;50.208;18.988;2023-09-19T02:04:05;21.20;99.90
20349;DHT22;10332;50.208;18.988;2023-09-19T02:06:34;21.20;99.90
20349;DHT22;10332;50.208;18.988;2023-09-19T02:09:02;21.20;99.90
20349;DHT22;10332;50.208;18.988;2023-09-19T02:11:30;21.20;99.90
20349;DHT22;10332;50.208;18.988;2023-09-19T02:13:58;21.20;99.90
20349;DHT22;10332;50.208;18.988;2023-09-19T02:16:26;21.20;99.90
20349;DHT22;10332;50.208;18.988;2023-09-19T02:18:54;21.20;99.90
20349;DHT22;10332;50.208;18.988;2023-09-19T02:21:21;21.20;99.90
20349;DHT22;10332;50.208;18.988;2023-09-19T02:23:49;21.20;99.90
20349;DHT22;10332;50.208;18.988;2023-09-19T02:26:16;21.20;99.90
20349;DHT22;10332;50.208;18.988;2023-09-19T02:28:43;21.10;99.90
20349;DHT22;10332;50.208;18.988;2023-09-19T02:31:12;21.10;99.90
20349;DHT22;10332;50.208;18.988;2023-09-19T02:33:40;21.10;99.90
20349;DHT22;10332;50.208;18.988;2023-09-19T02:36:08;21.10;99.90
20349;DHT22;10332;50.208;18.988;2023-09-19T02:38:35;21.10;1.00
20349;DHT22;10332;50.208;18.988;2023-09-19T02:41:04;21.10;99.90
20349;DHT22;10332;50.208;18.988;2023-09-19T02:43:31;21.10;1.00
20349;DHT22;10332;50.208;18.988;2023-09-19T02:45:58;21.10;1.00
20349;DHT22;10332;50.208;18.988;2023-09-19T02:48:26;21.00;1.00
20349;DHT22;10332;50.208;18.988;2023-09-19T02:50:53;21.10;1.00
20349;DHT22;10332;50.208;18.988;2023-09-19T02:53:21;21.00;1.00
20349;DHT22;10332;50.208;18.988;2023-09-19T02:55:49;20.90;1.00
20349;DHT22;10332;50.208;18.988;2023-09-19T02:58:16;20.90;1.00
20349;DHT22;10332;50.208;18.988;2023-09-19T03:00:45;20.90;1.00
20349;DHT22;10332;50.208;18.988;2023-09-19T03:03:17;20.90;1.00
20349;DHT22;10332;50.208;18.988;2023-09-19T03:05:44;20.90;99.90
20349;DHT22;10332;50.208;18.988;2023-09-19T03:08:15;20.80;99.90
20349;DHT22;10332;50.208;18.988;2023-09-19T03:10:42;20.80;99.90
20349;DHT22;10332;50.208;18.988;2023-09-19T03:13:10;20.80;1.00
20349;DHT22;10332;50.208;18.988;2023-09-19T03:15:41;20.70;1.00
20349;DHT22;10332;50.208;18.988;2023-09-19T03:18:11;20.70;1.00
20349;DHT22;10332;50.208;18.988;2023-09-19T03:20:38;20.70;99.90
20349;DHT22;10332;50.208;18.988;2023-09-19T03:23:05;20.60;1.00
20349;DHT22;10332;50.208;18.988;2023-09-19T03:25:36;20.60;99.90
20349;DHT22;10332;50.208;18.988;2023-09-19T03:28:04;20.50;1.00
20349;DHT22;10332;50.208;18.988;2023-09-19T03:30:34;20.50;99.90
20349;DHT22;10332;50.208;18.988;2023-09-19T03:33:02;20.40;99.90
20349;DHT22;10332;50.208;18.988;2023-09-19T03:35:29;20.40;1.00
20349;DHT22;10332;50.208;18.988;2023-09-19T03:37:56;20.40;99.90
20349;DHT22;10332;50.208;18.988;2023-09-19T03:40:24;20.30;1.00
20349;DHT22;10332;50.208;18.988;2023-09-19T03:42:52;20.20;1.00
20349;DHT22;10332;50.208;18.988;2023-09-19T03:45:19;20.20;1.00
20349;DHT22;10332;50.208;18.988;2023-09-19T03:47:47;20.20;99.90
20349;DHT22;10332;50.208;18.988;2023-09-19T03:50:15;20.10;1.00
20349;DHT22;10332;50.208;18.988;2023-09-19T03:52:44;20.10;1.00
20349;DHT22;10332;50.208;18.988;2023-09-19T03:55:12;20.10;1.00
20349;DHT22;10332;50.208;18.988;2023-09-19T03:57:39;20.00;99.90
20349;DHT22;10332;50.208;18.988;2023-09-19T04:00:07;20.00;99.90
20349;DHT22;10332;50.208;18.988;2023-09-19T04:02:39;20.00;38.70
20349;DHT22;10332;50.208;18.988;2023-09-19T04:05:07;20.00;1.00
20349;DHT22;10332;50.208;18.988;2023-09-19T04:07:34;19.90;1.00
20349;DHT22;10332;50.208;18.988;2023-09-19T04:10:02;19.80;1.00
20349;DHT22;10332;50.208;18.988;2023-09-19T04:12:30;19.80;1.00
20349;DHT22;10332;50.208;18.988;2023-09-19T04:14:58;19.70;1.00
20349;DHT22;10332;50.208;18.988;2023-09-19T04:17:25;19.60;1.00
20349;DHT22;10332;50.208;18.988;2023-09-19T04:19:53;19.60;1.00
20349;DHT22;10332;50.208;18.988;2023-09-19T04:22:20;19.70;1.00
20349;DHT22;10332;50.208;18.988;2023-09-19T04:24:48;19.70;1.00
20349;DHT22;10332;50.208;18.988;2023-09-19T04:27:15;19.70;1.00
20349;DHT22;10332;50.208;18.988;2023-09-19T04:29:42;19.60;1.00
20349;DHT22;10332;50.208;18.988;2023-09-19T04:32:10;19.60;1.00
20349;DHT22;10332;50.208;18.988;2023-09-19T04:34:37;19.70;1.00
20349;DHT22;10332;50.208;18.988;2023-09-19T04:37:08;19.60;1.00
20349;DHT22;10332;50.208;18.988;2023-09-19T04:39:35;19.70;1.00
20349;DHT22;10332;50.208;18.988;2023-09-19T04:42:02;19.60;1.00
20349;DHT22;10332;50.208;18.988;2023-09-19T04:44:30;19.60;1.00
20349;DHT22;10332;50.208;18.988;2023-09-19T04:46:58;19.40;1.00
20349;DHT22;10332;50.208;18.988;2023-09-19T04:49:26;19.30;1.00
20349;DHT22;10332;50.208;18.988;2023-09-19T04:51:54;19.30;1.30
20349;DHT22;10332;50.208;18.988;2023-09-19T04:54:22;19.30;1.00
20349;DHT22;10332;50.208;18.988;2023-09-19T04:56:50;19.40;1.00
20349;DHT22;10332;50.208;18.988;2023-09-19T04:59:17;19.30;1.00
20349;DHT22;10332;50.208;18.988;2023-09-19T05:01:45;19.20;24.10
20349;DHT22;10332;50.208;18.988;2023-09-19T05:04:12;19.10;54.20
20349;DHT22;10332;50.208;18.988;2023-09-19T05:06:40;19.10;70.00
20349;DHT22;10332;50.208;18.988;2023-09-19T05:09:10;19.10;75.10
20349;DHT22;10332;50.208;18.988;2023-09-19T05:11:38;19.00;96.20
20349;DHT22;10332;50.208;18.988;2023-09-19T05:14:05;19.00;99.90
20349;DHT22;10332;50.208;18.988;2023-09-19T05:16:33;18.90;99.90
20349;DHT22;10332;50.208;18.988;2023-09-19T05:19:01;18.90;99.90
20349;DHT22;10332;50.208;18.988;2023-09-19T05:21:30;19.00;99.90
20349;DHT22;10332;50.208;18.988;2023-09-19T05:23:58;19.10;99.90
20349;DHT22;10332;50.208;18.988;2023-09-19T05:26:25;19.10;99.90
20349;DHT22;10332;50.208;18.988;2023-09-19T05:28:52;19.20;99.90
20349;DHT22;10332;50.208;18.988;2023-09-19T05:31:20;19.20;99.90
20349;DHT22;10332;50.208;18.988;2023-09-19T05:33:47;19.20;99.90
20349;DHT22;10332;50.208;18.988;2023-09-19T05:36:15;19.20;92.30
20349;DHT22;10332;50.208;18.988;2023-09-19T05:38:42;19.20;61.60
20349;DHT22;10332;50.208;18.988;2023-09-19T05:41:11;19.20;49.10
20349;DHT22;10332;50.208;18.988;2023-09-19T05:43:41;19.20;30.40
20349;DHT22;10332;50.208;18.988;2023-09-19T05:46:09;19.30;14.50
20349;DHT22;10332;50.208;18.988;2023-09-19T05:48:36;19.20;1.40
20349;DHT22;10332;50.208;18.988;2023-09-19T05:51:06;19.20;1.00
20349;DHT22;10332;50.208;18.988;2023-09-19T05:53:34;19.30;1.00
20349;DHT22;10332;50.208;18.988;2023-09-19T05:56:01;19.30;1.00
20349;DHT22;10332;50.208;18.988;2023-09-19T05:58:29;19.30;1.00
20349;DHT22;10332;50.208;18.988;2023-09-19T06:00:56;19.40;1.00
20349;DHT22;10332;50.208;18.988;2023-09-19T06:03:24;19.30;1.00
20349;DHT22;10332;50.208;18.988;2023-09-19T06:05:52;19.40;1.00
20349;DHT22;10332;50.208;18.988;2023-09-19T06:08:24;19.40;1.00
20349;DHT22;10332;50.208;18.988;2023-09-19T06:10:53;19.40;1.00
20349;DHT22;10332;50.208;18.988;2023-09-19T06:13:21;19.40;1.00
20349;DHT22;10332;50.208;18.988;2023-09-19T06:15:48;19.40;1.00
20349;DHT22;10332;50.208;18.988;2023-09-19T06:18:16;19.30;1.00
20349;DHT22;10332;50.208;18.988;2023-09-19T06:20:48;19.40;1.00
20349;DHT22;10332;50.208;18.988;2023-09-19T06:23:18;19.40;1.00
20349;DHT22;10332;50.208;18.988;2023-09-19T06:25:48;19.30;1.00
20349;DHT22;10332;50.208;18.988;2023-09-19T06:28:15;19.30;1.00
20349;DHT22;10332;50.208;18.988;2023-09-19T06:30:46;19.30;1.00
20349;DHT22;10332;50.208;18.988;2023-09-19T06:33:13;19.30;1.00
20349;DHT22;10332;50.208;18.988;2023-09-19T06:35:45;19.30;1.00
20349;DHT22;10332;50.208;18.988;2023-09-19T06:38:14;19.40;1.00
20349;DHT22;10332;50.208;18.988;2023-09-19T06:40:42;19.40;1.00
20349;DHT22;10332;50.208;18.988;2023-09-19T06:43:10;19.40;1.00
20349;DHT22;10332;50.208;18.988;2023-09-19T06:45:38;19.40;1.00
20349;DHT22;10332;50.208;18.988;2023-09-19T06:48:05;19.40;1.00
20349;DHT22;10332;50.208;18.988;2023-09-19T06:50:34;19.40;1.00
20349;DHT22;10332;50.208;18.988;2023-09-19T06:53:03;19.50;1.00
20349;DHT22;10332;50.208;18.988;2023-09-19T06:55:31;19.50;1.00
20349;DHT22;10332;50.208;18.988;2023-09-19T06:57:59;19.40;1.00
20349;DHT22;10332;50.208;18.988;2023-09-19T07:00:27;19.50;1.00
20349;DHT22;10332;50.208;18.988;2023-09-19T07:02:58;19.50;1.00
20349;DHT22;10332;50.208;18.988;2023-09-19T07:05:29;19.50;1.00
20349;DHT22;10332;50.208;18.988;2023-09-19T07:07:57;19.60;1.00
20349;DHT22;10332;50.208;18.988;2023-09-19T07:10:28;19.70;1.00
20349;DHT22;10332;50.208;18.988;2023-09-19T07:13:00;19.70;1.00
20349;DHT22;10332;50.208;18.988;2023-09-19T07:15:29;19.60;1.00
20349;DHT22;10332;50.208;18.988;2023-09-19T07:17:57;19.50;1.00
20349;DHT22;10332;50.208;18.988;2023-09-19T07:20:25;19.50;1.00
20349;DHT22;10332;50.208;18.988;2023-09-19T07:22:54;19.50;1.00
20349;DHT22;10332;50.208;18.988;2023-09-19T07:25:23;19.50;1.00
20349;DHT22;10332;50.208;18.988;2023-09-19T07:27:50;19.50;1.00
20349;DHT22;10332;50.208;18.988;2023-09-19T07:30:18;19.50;1.00
20349;DHT22;10332;50.208;18.988;2023-09-19T07:32:45;19.40;1.00
20349;DHT22;10332;50.208;18.988;2023-09-19T07:35:13;19.40;1.00
20349;DHT22;10332;50.208;18.988;2023-09-19T07:37:40;19.40;1.00
20349;DHT22;10332;50.208;18.988;2023-09-19T07:40:08;19.40;1.00
20349;DHT22;10332;50.208;18.988;2023-09-19T07:42:39;19.50;1.00
20349;DHT22;10332;50.208;18.988;2023-09-19T07:45:08;19.50;1.00
20349;DHT22;10332;50.208;18.988;2023-09-19T07:47:36;19.50;1.00
20349;DHT22;10332;50.208;18.988;2023-09-19T07:50:04;19.60;1.00
20349;DHT22;10332;50.208;18.988;2023-09-19T07:52:31;19.50;1.00
20349;DHT22;10332;50.208;18.988;2023-09-19T07:55:00;19.40;1.00
20349;DHT22;10332;50.208;18.988;2023-09-19T07:57:33;19.40;1.00
20349;DHT22;10332;50.208;18.988;2023-09-19T08:00:02;19.40;1.00
20349;DHT22;10332;50.208;18.988;2023-09-19T08:02:39;19.50;1.00
20349;DHT22;10332;50.208;18.988;2023-09-19T08:05:11;19.50;1.00
20349;DHT22;10332;50.208;18.988;2023-09-19T08:07:41;19.50;1.00
20349;DHT22;10332;50.208;18.988;2023-09-19T08:10:10;19.50;1.00
20349;DHT22;10332;50.208;18.988;2023-09-19T08:12:40;19.50;1.00
20349;DHT22;10332;50.208;18.988;2023-09-19T08:15:20;19.50;1.00
20349;DHT22;10332;50.208;18.988;2023-09-19T08:17:48;19.60;1.00
20349;DHT22;10332;50.208;18.988;2023-09-19T08:20:17;19.60;1.00
20349;DHT22;10332;50.208;18.988;2023-09-19T08:22:50;19.60;1.00
20349;DHT22;10332;50.208;18.988;2023-09-19T08:25:21;19.60;1.00
20349;DHT22;10332;50.208;18.988;2023-09-19T08:27:49;19.60;1.00
20349;DHT22;10332;50.208;18.988;2023-09-19T08:30:21;19.60;1.00
20349;DHT22;10332;50.208;18.988;2023-09-19T08:32:57;19.50;1.00
20349;DHT22;10332;50.208;18.988;2023-09-19T08:35:27;19.60;1.00
20349;DHT22;10332;50.208;18.988;2023-09-19T08:37:54;19.50;1.00
20349;DHT22;10332;50.208;18.988;2023-09-19T08:40:23;19.50;1.00
20349;DHT22;10332;50.208;18.988;2023-09-19T08:42:54;19.50;1.00
20349;DHT22;10332;50.208;18.988;2023-09-19T08:45:23;19.50;1.00
20349;DHT22;10332;50.208;18.988;2023-09-19T08:51:04;19.60;1.00
20349;DHT22;10332;50.208;18.988;2023-09-19T08:56:14;19.70;1.00
20349;DHT22;10332;50.208;18.988;2023-09-19T08:59:04;19.70;1.00
20349;DHT22;10332;50.208;18.988;2023-09-19T09:01:35;19.70;1.00
20349;DHT22;10332;50.208;18.988;2023-09-19T09:04:03;19.80;1.00
20349;DHT22;10332;50.208;18.988;2023-09-19T09:06:36;19.80;1.00
20349;DHT22;10332;50.208;18.988;2023-09-19T09:09:06;19.80;1.00
20349;DHT22;10332;50.208;18.988;2023-09-19T09:11:36;19.70;1.00
20349;DHT22;10332;50.208;18.988;2023-09-19T09:14:07;19.70;1.00
20349;DHT22;10332;50.208;18.988;2023-09-19T09:16:35;19.70;1.00
20349;DHT22;10332;50.208;18.988;2023-09-19T09:19:02;19.70;1.00
20349;DHT22;10332;50.208;18.988;2023-09-19T09:21:30;19.70;1.00
20349;DHT22;10332;50.208;18.988;2023-09-19T09:24:29;19.70;1.00
20349;DHT22;10332;50.208;18.988;2023-09-19T09:26:57;19.80;1.00
20349;DHT22;10332;50.208;18.988;2023-09-19T09:29:45;19.90;1.00
20349;DHT22;10332;50.208;18.988;2023-09-19T09:32:33;19.90;1.00
20349;DHT22;10332;50.208;18.988;2023-09-19T09:35:09;20.00;1.00
20349;DHT22;10332;50.208;18.988;2023-09-19T09:37:37;20.10;1.00
20349;DHT22;10332;50.208;18.988;2023-09-19T09:40:06;20.10;1.00
20349;DHT22;10332;50.208;18.988;2023-09-19T09:42:39;20.10;1.00
20349;DHT22;10332;50.208;18.988;2023-09-19T09:45:17;20.10;1.00
20349;DHT22;10332;50.208;18.988;2023-09-19T09:47:46;20.10;1.00
20349;DHT22;10332;50.208;18.988;2023-09-19T09:50:32;20.10;1.00
20349;DHT22;10332;50.208;18.988;2023-09-19T09:53:27;20.10;1.00
20349;DHT22;10332;50.208;18.988;2023-09-19T09:56:05;20.10;1.00
20349;DHT22;10332;50.208;18.988;2023-09-19T09:58:34;20.10;1.00
20349;DHT22;10332;50.208;18.988;2023-09-19T10:01:04;20.00;1.00
20349;DHT22;10332;50.208;18.988;2023-09-19T10:03:43;19.90;1.00
20349;DHT22;10332;50.208;18.988;2023-09-19T10:06:16;20.00;1.00
20349;DHT22;10332;50.208;18.988;2023-09-19T10:09:09;20.10;1.00
20349;DHT22;10332;50.208;18.988;2023-09-19T10:11:48;20.10;1.00
20349;DHT22;10332;50.208;18.988;2023-09-19T10:14:27;20.10;1.00
20349;DHT22;10332;50.208;18.988;2023-09-19T10:17:19;20.20;1.00
20349;DHT22;10332;50.208;18.988;2023-09-19T10:19:54;20.10;1.00
20349;DHT22;10332;50.208;18.988;2023-09-19T10:22:28;20.20;1.00
20349;DHT22;10332;50.208;18.988;2023-09-19T10:24:59;20.20;1.00
20349;DHT22;10332;50.208;18.988;2023-09-19T10:27:30;20.10;1.00
20349;DHT22;10332;50.208;18.988;2023-09-19T10:30:08;20.10;1.00
20349;DHT22;10332;50.208;18.988;2023-09-19T10:32:40;20.10;1.00
20349;DHT22;10332;50.208;18.988;2023-09-19T10:35:08;20.20;1.00
20349;DHT22;10332;50.208;18.988;2023-09-19T10:37:41;20.20;1.00
20349;DHT22;10332;50.208;18.988;2023-09-19T10:40:12;20.20;1.00
20349;DHT22;10332;50.208;18.988;2023-09-19T10:42:40;20.20;1.00
20349;DHT22;10332;50.208;18.988;2023-09-19T10:45:10;20.20;1.00
20349;DHT22;10332;50.208;18.988;2023-09-19T10:47:42;20.20;1.00
20349;DHT22;10332;50.208;18.988;2023-09-19T10:50:20;20.20;1.00
20349;DHT22;10332;50.208;18.988;2023-09-19T10:52:49;20.20;1.00
20349;DHT22;10332;50.208;18.988;2023-09-19T10:55:20;20.20;1.00
20349;DHT22;10332;50.208;18.988;2023-09-19T10:57:49;20.10;1.00
20349;DHT22;10332;50.208;18.988;2023-09-19T11:00:18;20.20;1.00
20349;DHT22;10332;50.208;18.988;2023-09-19T11:03:19;20.20;1.00
20349;DHT22;10332;50.208;18.988;2023-09-19T11:09:07;20.00;1.00
20349;DHT22;10332;50.208;18.988;2023-09-19T11:14:37;20.00;1.00
20349;DHT22;10332;50.208;18.988;2023-09-19T11:30:47;19.70;1.00
20349;DHT22;10332;50.208;18.988;2023-09-19T11:36:07;19.70;1.00
20349;DHT22;10332;50.208;18.988;2023-09-19T11:46:54;19.70;1.00
20349;DHT22;10332;50.208;18.988;2023-09-19T11:49:30;19.80;1.00
20349;DHT22;10332;50.208;18.988;2023-09-19T11:52:00;19.90;1.00
20349;DHT22;10332;50.208;18.988;2023-09-19T11:54:28;20.00;1.00
20349;DHT22;10332;50.208;18.988;2023-09-19T11:56:59;20.00;1.00
20349;DHT22;10332;50.208;18.988;2023-09-19T11:59:28;20.10;1.00
20349;DHT22;10332;50.208;18.988;2023-09-19T12:02:01;20.10;1.00
20349;DHT22;10332;50.208;18.988;2023-09-19T12:04:35;20.10;1.00
20349;DHT22;10332;50.208;18.988;2023-09-19T12:07:13;20.20;1.00
20349;DHT22;10332;50.208;18.988;2023-09-19T12:09:49;20.20;1.00
20349;DHT22;10332;50.208;18.988;2023-09-19T12:12:20;20.30;1.00
20349;DHT22;10332;50.208;18.988;2023-09-19T12:14:50;20.40;1.00
20349;DHT22;10332;50.208;18.988;2023-09-19T12:17:18;20.40;1.00
20349;DHT22;10332;50.208;18.988;2023-09-19T12:19:53;20.60;1.00
20349;DHT22;10332;50.208;18.988;2023-09-19T12:22:21;20.80;1.00
20349;DHT22;10332;50.208;18.988;2023-09-19T12:24:48;20.90;99.90
20349;DHT22;10332;50.208;18.988;2023-09-19T12:27:17;21.00;99.90
20349;DHT22;10332;50.208;18.988;2023-09-19T12:29:49;21.20;13.20
20349;DHT22;10332;50.208;18.988;2023-09-19T12:32:17;21.30;16.80
20349;DHT22;10332;50.208;18.988;2023-09-19T12:34:51;21.30;1.00
20349;DHT22;10332;50.208;18.988;2023-09-19T12:37:20;21.30;1.00
20349;DHT22;10332;50.208;18.988;2023-09-19T12:39:50;21.20;1.00
20349;DHT22;10332;50.208;18.988;2023-09-19T12:42:23;21.30;1.00
20349;DHT22;10332;50.208;18.988;2023-09-19T12:44:52;21.20;1.00
20349;DHT22;10332;50.208;18.988;2023-09-19T12:47:24;21.30;1.00
20349;DHT22;10332;50.208;18.988;2023-09-19T12:50:15;21.60;1.00
20349;DHT22;10332;50.208;18.988;2023-09-19T12:52:47;21.90;1.00
20349;DHT22;10332;50.208;18.988;2023-09-19T12:55:30;22.20;1.00
20349;DHT22;10332;50.208;18.988;2023-09-19T12:58:12;22.20;1.00
20349;DHT22;10332;50.208;18.988;2023-09-19T13:00:41;22.10;99.90
20349;DHT22;10332;50.208;18.988;2023-09-19T13:05:57;22.40;99.90
20349;DHT22;10332;50.208;18.988;2023-09-19T13:08:31;22.50;1.00
20349;DHT22;10332;50.208;18.988;2023-09-19T13:11:17;22.70;76.40
20349;DHT22;10332;50.208;18.988;2023-09-19T13:13:48;23.20;99.90
20349;DHT22;10332;50.208;18.988;2023-09-19T13:16:17;23.40;1.00
20349;DHT22;10332;50.208;18.988;2023-09-19T13:18:53;23.90;1.00
20349;DHT22;10332;50.208;18.988;2023-09-19T13:21:34;24.20;1.00
20349;DHT22;10332;50.208;18.988;2023-09-19T13:24:24;24.50;1.00
20349;DHT22;10332;50.208;18.988;2023-09-19T13:26:55;24.80;1.00
20349;DHT22;10332;50.208;18.988;2023-09-19T13:29:23;24.90;99.90
20349;DHT22;10332;50.208;18.988;2023-09-19T13:31:52;24.60;99.90
20349;DHT22;10332;50.208;18.988;2023-09-19T13:34:20;24.20;1.00
20349;DHT22;10332;50.208;18.988;2023-09-19T13:36:48;24.10;1.00
20349;DHT22;10332;50.208;18.988;2023-09-19T13:39:17;24.00;1.00
20349;DHT22;10332;50.208;18.988;2023-09-19T13:41:45;23.90;1.00
20349;DHT22;10332;50.208;18.988;2023-09-19T13:44:14;23.60;1.00
20349;DHT22;10332;50.208;18.988;2023-09-19T13:46:42;23.50;1.00
20349;DHT22;10332;50.208;18.988;2023-09-19T13:49:13;23.40;99.90
20349;DHT22;10332;50.208;18.988;2023-09-19T13:51:41;23.20;99.90
20349;DHT22;10332;50.208;18.988;2023-09-19T13:54:11;22.90;99.90
20349;DHT22;10332;50.208;18.988;2023-09-19T13:56:39;22.70;1.00
20349;DHT22;10332;50.208;18.988;2023-09-19T13:59:07;22.40;99.90
20349;DHT22;10332;50.208;18.988;2023-09-19T14:01:34;22.30;1.00
20349;DHT22;10332;50.208;18.988;2023-09-19T14:04:02;22.10;1.00
20349;DHT22;10332;50.208;18.988;2023-09-19T14:06:30;21.60;7.80
20349;DHT22;10332;50.208;18.988;2023-09-19T14:08:57;21.60;99.90
20349;DHT22;10332;50.208;18.988;2023-09-19T14:11:24;21.50;99.90
20349;DHT22;10332;50.208;18.988;2023-09-19T14:13:55;21.40;1.00
20349;DHT22;10332;50.208;18.988;2023-09-19T14:16:24;21.30;98.90
20349;DHT22;10332;50.208;18.988;2023-09-19T14:18:51;21.20;16.40
20349;DHT22;10332;50.208;18.988;2023-09-19T14:21:19;21.30;99.90
20349;DHT22;10332;50.208;18.988;2023-09-19T14:23:47;21.20;1.00
20349;DHT22;10332;50.208;18.988;2023-09-19T14:26:16;21.10;1.00
20349;DHT22;10332;50.208;18.988;2023-09-19T14:28:45;21.10;1.00
20349;DHT22;10332;50.208;18.988;2023-09-19T14:31:13;21.10;16.50
20349;DHT22;10332;50.208;18.988;2023-09-19T14:33:40;21.10;1.00
20349;DHT22;10332;50.208;18.988;2023-09-19T14:36:09;21.10;1.00
20349;DHT22;10332;50.208;18.988;2023-09-19T14:38:38;21.10;99.90
20349;DHT22;10332;50.208;18.988;2023-09-19T14:41:06;21.10;84.80
20349;DHT22;10332;50.208;18.988;2023-09-19T14:43:34;21.10;1.00
20349;DHT22;10332;50.208;18.988;2023-09-19T14:46:05;21.20;1.00
20349;DHT22;10332;50.208;18.988;2023-09-19T14:48:37;21.60;1.00
20349;DHT22;10332;50.208;18.988;2023-09-19T14:51:06;21.60;1.00
20349;DHT22;10332;50.208;18.988;2023-09-19T14:53:36;21.50;1.00
20349;DHT22;10332;50.208;18.988;2023-09-19T14:56:08;21.50;1.00
20349;DHT22;10332;50.208;18.988;2023-09-19T14:58:36;21.40;99.90
20349;DHT22;10332;50.208;18.988;2023-09-19T15:01:08;21.40;99.90
20349;DHT22;10332;50.208;18.988;2023-09-19T15:03:38;21.30;1.00
20349;DHT22;10332;50.208;18.988;2023-09-19T15:06:08;21.20;99.90
20349;DHT22;10332;50.208;18.988;2023-09-19T15:08:37;20.90;99.90
20349;DHT22;10332;50.208;18.988;2023-09-19T15:11:08;20.70;99.90
20349;DHT22;10332;50.208;18.988;2023-09-19T15:13:36;20.70;1.00
20349;DHT22;10332;50.208;18.988;2023-09-19T15:16:07;20.60;99.90
20349;DHT22;10332;50.208;18.988;2023-09-19T15:18:40;20.60;99.90
20349;DHT22;10332;50.208;18.988;2023-09-19T15:21:10;20.60;1.00
20349;DHT22;10332;50.208;18.988;2023-09-19T15:23:40;20.60;1.00
20349;DHT22;10332;50.208;18.988;2023-09-19T15:26:11;20.60;1.00
20349;DHT22;10332;50.208;18.988;2023-09-19T15:28:39;20.60;99.90
20349;DHT22;10332;50.208;18.988;2023-09-19T15:31:09;20.60;99.90
20349;DHT22;10332;50.208;18.988;2023-09-19T15:33:37;20.60;99.90
20349;DHT22;10332;50.208;18.988;2023-09-19T15:36:07;20.50;99.90
20349;DHT22;10332;50.208;18.988;2023-09-19T15:41:31;20.40;1.00
20349;DHT22;10332;50.208;18.988;2023-09-19T15:44:00;20.30;99.90
20349;DHT22;10332;50.208;18.988;2023-09-19T15:46:33;20.30;99.90
20349;DHT22;10332;50.208;18.988;2023-09-19T15:49:02;20.20;1.00
20349;DHT22;10332;50.208;18.988;2023-09-19T15:51:30;20.20;1.00
20349;DHT22;10332;50.208;18.988;2023-09-19T15:53:58;20.20;1.00
20349;DHT22;10332;50.208;18.988;2023-09-19T15:56:27;20.20;15.40
20349;DHT22;10332;50.208;18.988;2023-09-19T15:58:55;20.10;99.90
20349;DHT22;10332;50.208;18.988;2023-09-19T16:01:23;20.10;99.90
20349;DHT22;10332;50.208;18.988;2023-09-19T16:03:57;20.00;99.90
20349;DHT22;10332;50.208;18.988;2023-09-19T16:06:27;20.00;99.90
20349;DHT22;10332;50.208;18.988;2023-09-19T16:08:57;20.00;99.90
20349;DHT22;10332;50.208;18.988;2023-09-19T16:11:27;20.10;99.90
20349;DHT22;10332;50.208;18.988;2023-09-19T16:13:55;20.10;1.00
20349;DHT22;10332;50.208;18.988;2023-09-19T16:16:24;20.10;1.00
20349;DHT22;10332;50.208;18.988;2023-09-19T16:18:53;20.10;1.00
20349;DHT22;10332;50.208;18.988;2023-09-19T16:21:25;20.10;1.00
20349;DHT22;10332;50.208;18.988;2023-09-19T16:23:57;20.10;1.00
20349;DHT22;10332;50.208;18.988;2023-09-19T16:26:26;20.10;1.00
20349;DHT22;10332;50.208;18.988;2023-09-19T16:28:54;20.00;1.00
20349;DHT22;10332;50.208;18.988;2023-09-19T16:31:29;20.00;1.00
20349;DHT22;10332;50.208;18.988;2023-09-19T16:33:58;19.90;1.00
20349;DHT22;10332;50.208;18.988;2023-09-19T16:36:27;19.80;1.00
20349;DHT22;10332;50.208;18.988;2023-09-19T16:38:55;19.60;1.00
20349;DHT22;10332;50.208;18.988;2023-09-19T16:41:23;19.50;1.00
20349;DHT22;10332;50.208;18.988;2023-09-19T16:43:50;19.40;1.00
20349;DHT22;10332;50.208;18.988;2023-09-19T16:46:18;19.30;1.00